MMZOMMPR

Guest
Details From MMZO - Playa De Oro Intl
To MMPR - Licenciado Gustavo Diaz Ordaz Intl
Flight Number -
Tags Generated
Created
Modified
Stats Distance 100 nm / 184 km
Max Altitude 0 ft / 0 m
Waypoints 2
Social Downloads 3
Likes 0
Share VATSIM

Download

Looking for another format? Having issues loading an existing format? Contact us
Advertisement - Login to hide

Notes

Generated

Route

MMZO MMPR

ID Type Via Altitude Latitude Longitude Leg Dist Tot Dist Heading (true) Name
O MMZO APT - 0 ft / 0 m 19.14754˚ -104.56868˚ - 0 nm - -
O MMPR APT - 0 ft / 0 m 20.67053˚ -105.26511˚ 99 nm 99 nm 337° / 337° -

Altitude Profile

Advertisement - Login to hide

MMZO

Details ICAO MMZO (ZLO)
Name PLAYA DE ORO INTL
Region Mexico
Timezone America/Mexico_City (UTC-5.0)
Stats Elevation 30 ft / 9 m (AMSL)
Location 19.144779° -104.558631°
Runways 1
Magnetic Variation 6.584° E

METAR

MMZO 250050Z 24010KT 12SM SKC 28/22 A2984

Decode

TAF

Not found

Departure Runways

ID Width Length Bearing (true) Bearing (mag) Surface Threshold Offset Overrun Length
10 148 ft / 45 m 7,214 ft / 2,199 m 106.21° 99.63° Asphalt 0 ft / 0 m 200 ft / 61 m
28 148 ft / 45 m 7,214 ft / 2,199 m 286.22° 279.64° Asphalt 0 ft / 0 m 200 ft / 61 m

MMPR

Details ICAO MMPR (PVR)
Name LICENCIADO GUSTAVO DIAZ ORDAZ INTL
Region Mexico
Timezone America/Mexico_City (UTC-5.0)
Stats Elevation 23 ft / 7 m (AMSL)
Location 20.680069° -105.254153°
Runways 1
Magnetic Variation 6.847° E

METAR

MMPR 250045Z 21010KT 12SM SKC 28/24 A2985

Decode

TAF

TAF MMPR 242304Z 2500/2606 22015KT P6SM SKC TX30/2520Z TN23/2513Z FM250600 22005KT P6SM SCT250 FM251200 00000KT P6SM SKC FM251800 24015KT P6SM SKC FM260300 32005KT P6SM SCT020

Decode

Destination Runways

ID Width Length Bearing (true) Bearing (mag) Surface Threshold Offset Overrun Length
04 148 ft / 45 m 10,221 ft / 3,116 m 47.05° 40.20° Asphalt 0 ft / 0 m 185 ft / 56 m
22 148 ft / 45 m 10,221 ft / 3,116 m 227.06° 220.21° Asphalt 0 ft / 0 m 185 ft / 56 m

Popular Alternatives